createdAt,value
2022-11-29T00:00:52.482Z,19.00
2022-11-29T00:05:54.564Z,16.67
2022-11-29T00:10:56.385Z,18.23
2022-11-29T00:16:03.344Z,19.02
2022-11-29T00:21:09.412Z,19.70
2022-11-29T00:26:11.408Z,22.17
2022-11-29T00:31:22.353Z,17.67
2022-11-29T00:36:24.662Z,19.88
2022-11-29T00:41:26.660Z,20.55
2022-11-29T00:46:31.444Z,22.30
2022-11-29T00:51:33.214Z,20.30
2022-11-29T00:56:35.205Z,20.58
2022-11-29T01:01:37.271Z,20.15
2022-11-29T01:06:39.474Z,18.55
2022-11-29T01:11:41.427Z,16.60
2022-11-29T01:16:43.255Z,23.27
2022-11-29T01:21:45.159Z,18.38
2022-11-29T01:26:47.092Z,20.58
2022-11-29T01:31:48.937Z,20.45
2022-11-29T01:36:50.720Z,23.15
2022-11-29T01:41:52.679Z,21.80
2022-11-29T01:46:56.304Z,16.92
2022-11-29T01:52:00.795Z,20.23
2022-11-29T01:57:06.806Z,20.48
2022-11-29T02:02:38.492Z,22.67
2022-11-29T02:07:43.388Z,18.02
2022-11-29T02:13:12.670Z,20.25
2022-11-29T02:18:34.510Z,20.60
2022-11-29T02:24:00.609Z,19.02
2022-11-29T02:29:05.514Z,18.20
2022-11-29T02:34:07.409Z,16.77
2022-11-29T02:39:30.537Z,21.25
2022-11-29T02:44:51.036Z,22.95
2022-11-29T02:50:19.386Z,20.65
2022-11-29T02:55:29.922Z,20.90
2022-11-29T03:00:40.021Z,20.35
2022-11-29T03:05:51.058Z,22.70
2022-11-29T03:10:58.695Z,22.23
2022-11-29T03:16:11.706Z,25.15
2022-11-29T03:21:34.873Z,26.20
2022-11-29T03:26:44.448Z,27.63
2022-11-29T03:32:04.019Z,25.58
2022-11-29T03:37:13.390Z,29.25
2022-11-29T03:42:21.703Z,27.55
2022-11-29T03:47:28.966Z,25.45
2022-11-29T03:52:51.183Z,32.55
2022-11-29T03:58:09.783Z,32.40
2022-11-29T04:03:48.012Z,27.92
2022-11-29T04:09:08.593Z,23.50
2022-11-29T04:14:33.696Z,31.52
2022-11-29T04:20:02.655Z,32.13
2022-11-29T04:25:16.211Z,32.38
2022-11-29T04:30:25.283Z,32.83
2022-11-29T04:35:51.863Z,28.15
2022-11-29T04:41:02.387Z,30.48
2022-11-29T04:46:31.847Z,27.27
2022-11-29T04:51:49.748Z,21.38
2022-11-29T04:57:00.751Z,22.92
2022-11-29T05:02:10.310Z,27.80
2022-11-29T05:07:28.051Z,21.02
2022-11-29T05:12:39.284Z,22.17
2022-11-29T05:18:00.424Z,21.88
2022-11-29T05:23:08.190Z,23.13
2022-11-29T05:28:30.082Z,18.63
2022-11-29T05:33:34.671Z,20.25
2022-11-29T05:39:07.968Z,18.42
2022-11-29T05:44:19.871Z,20.80
2022-11-29T05:49:39.905Z,21.17
2022-11-29T05:55:05.795Z,20.98
2022-11-29T06:00:10.898Z,23.85
2022-11-29T06:05:31.011Z,24.30
2022-11-29T06:10:40.212Z,27.88
2022-11-29T06:16:09.755Z,24.77
2022-11-29T06:21:41.504Z,25.48
2022-11-29T06:26:55.156Z,25.85
2022-11-29T06:32:44.956Z,26.40
2022-11-29T06:37:51.390Z,25.85
2022-11-29T06:42:53.215Z,20.95
2022-11-29T06:48:02.679Z,30.17
2022-11-29T06:53:23.999Z,24.40
2022-11-29T06:58:53.405Z,21.70
2022-11-29T07:04:05.659Z,32.53
2022-11-29T07:09:17.778Z,22.92
2022-11-29T07:14:20.026Z,25.20
2022-11-29T07:19:30.649Z,26.67
2022-11-29T07:24:38.978Z,24.23
2022-11-29T07:29:49.875Z,24.70
2022-11-29T07:35:00.664Z,26.75
2022-11-29T07:40:23.127Z,23.70
2022-11-29T07:45:32.839Z,24.77
2022-11-29T07:50:36.032Z,23.20
2022-11-29T07:55:37.902Z,30.65
2022-11-29T08:00:40.547Z,27.90
2022-11-29T08:05:47.467Z,26.17
2022-11-29T08:10:49.462Z,27.42
2022-11-29T08:15:51.316Z,26.35
2022-11-29T08:20:53.233Z,22.75
2022-11-29T08:26:00.436Z,28.45
2022-11-29T08:31:07.825Z,20.37
2022-11-29T08:36:16.358Z,21.27
2022-11-29T08:41:18.579Z,17.02
2022-11-29T08:46:20.630Z,21.98
2022-11-29T08:51:22.515Z,18.23
2022-11-29T08:57:09.983Z,21.05
2022-11-29T09:01:46.604Z,18.33
2022-11-29T09:06:51.436Z,14.48
2022-11-29T09:11:53.353Z,18.30
2022-11-29T09:16:55.196Z,16.75
2022-11-29T09:21:57.178Z,16.23
2022-11-29T09:27:00.120Z,19.98
2022-11-29T09:32:02.085Z,19.80
2022-11-29T09:37:05.783Z,12.05
2022-11-29T09:42:29.505Z,13.35
2022-11-29T09:48:14.287Z,13.27
2022-11-29T09:53:33.079Z,13.40
2022-11-29T09:58:47.293Z,13.25
2022-11-29T10:03:53.055Z,13.10
2022-11-29T10:09:21.133Z,14.38
2022-11-29T10:14:30.169Z,11.27
2022-11-29T10:19:41.224Z,13.80
2022-11-29T10:24:49.898Z,13.15
2022-11-29T10:29:52.185Z,12.90
2022-11-29T10:34:53.938Z,14.23
2022-11-29T10:40:04.328Z,14.85
2022-11-29T10:45:34.343Z,14.20
2022-11-29T10:50:37.634Z,15.30
2022-11-29T10:55:59.052Z,15.82
2022-11-29T11:01:08.662Z,14.45
2022-11-29T11:06:13.680Z,13.82
2022-11-29T11:11:28.482Z,21.00
2022-11-29T11:16:35.719Z,15.02
2022-11-29T11:21:39.696Z,19.45
2022-11-29T11:26:44.419Z,15.40
2022-11-29T11:31:57.185Z,17.98
2022-11-29T11:37:23.140Z,17.60
2022-11-29T11:42:39.595Z,18.33
2022-11-29T11:47:44.467Z,16.88
2022-11-29T11:52:54.059Z,18.95
2022-11-29T11:58:10.193Z,18.00
2022-11-29T12:03:39.996Z,16.60
2022-11-29T12:08:43.737Z,18.17
2022-11-29T12:13:51.054Z,21.25
2022-11-29T12:19:17.276Z,21.48
2022-11-29T12:24:24.904Z,20.05
2022-11-29T12:29:33.372Z,17.85
2022-11-29T12:35:02.212Z,17.67
2022-11-29T12:40:45.594Z,16.80
2022-11-29T12:46:06.220Z,20.02
2022-11-29T12:51:28.535Z,22.98
2022-11-29T12:56:58.650Z,21.90
2022-11-29T13:02:24.269Z,24.23
2022-11-29T13:07:38.395Z,18.23
2022-11-29T13:12:45.202Z,21.40
2022-11-29T13:18:04.185Z,17.42
2022-11-29T13:23:14.862Z,20.63
2022-11-29T13:28:29.826Z,20.67
2022-11-29T13:33:34.202Z,21.02
2022-11-29T13:38:38.681Z,19.63
2022-11-29T13:43:55.593Z,18.58
2022-11-29T13:48:57.584Z,19.42
2022-11-29T13:54:06.820Z,19.23
2022-11-29T13:59:15.423Z,25.13
2022-11-29T14:04:23.464Z,31.60
2022-11-29T14:09:34.818Z,23.90
2022-11-29T14:14:57.210Z,28.02
2022-11-29T14:20:24.912Z,20.38
2022-11-29T14:25:50.578Z,20.97
2022-11-29T14:30:54.231Z,22.75
2022-11-29T14:36:07.714Z,22.42
2022-11-29T14:41:21.531Z,19.42
2022-11-29T14:46:29.676Z,25.65
2022-11-29T14:51:34.431Z,23.25
2022-11-29T14:56:47.473Z,19.52
2022-11-29T15:01:50.450Z,33.17
2022-11-29T15:06:57.044Z,28.27
2022-11-29T15:12:10.323Z,26.60
2022-11-29T15:17:50.323Z,29.73
2022-11-29T15:22:55.709Z,25.60
2022-11-29T15:27:58.698Z,23.23
2022-11-29T15:33:03.676Z,24.52
2022-11-29T15:38:05.589Z,27.85
2022-11-29T15:43:26.651Z,24.27
2022-11-29T15:48:33.929Z,26.15
2022-11-29T15:53:41.651Z,30.92
2022-11-29T15:58:46.319Z,31.45
2022-11-29T16:03:53.660Z,28.55
2022-11-29T16:08:56.030Z,30.60
2022-11-29T16:14:05.395Z,40.88
2022-11-29T16:19:18.867Z,35.75
2022-11-29T16:24:21.903Z,35.38
2022-11-29T16:29:33.475Z,40.28
2022-11-29T16:34:35.403Z,29.90
2022-11-29T16:39:39.049Z,35.50
2022-11-29T16:44:40.908Z,40.03
2022-11-29T16:49:42.755Z,42.08
2022-11-29T16:54:44.793Z,31.05
2022-11-29T16:59:47.400Z,43.72
2022-11-29T17:04:51.338Z,40.80
2022-11-29T17:09:53.928Z,50.42
2022-11-29T17:14:56.146Z,35.95
2022-11-29T17:19:57.958Z,31.92
2022-11-29T17:25:00.763Z,32.90
2022-11-29T17:30:03.568Z,37.67
2022-11-29T17:35:05.798Z,40.83
2022-11-29T17:40:08.515Z,36.70
2022-11-29T17:45:10.766Z,40.47
2022-11-29T17:50:12.824Z,43.15
2022-11-29T17:55:19.193Z,31.70
2022-11-29T18:00:22.823Z,27.95
2022-11-29T18:05:26.248Z,33.30
2022-11-29T18:10:30.698Z,42.22
2022-11-29T18:15:35.740Z,27.75
2022-11-29T18:20:37.605Z,38.05
2022-11-29T18:25:40.093Z,38.55
2022-11-29T18:30:42.347Z,37.75
2022-11-29T18:35:44.353Z,36.63
2022-11-29T18:40:46.279Z,35.55
2022-11-29T18:45:48.240Z,40.15
2022-11-29T18:50:50.285Z,33.72
2022-11-29T18:56:10.330Z,33.90
2022-11-29T19:01:18.726Z,37.45
2022-11-29T19:06:26.353Z,40.22
2022-11-29T19:11:30.483Z,38.97
2022-11-29T19:16:34.852Z,37.35
2022-11-29T19:21:37.868Z,38.45
2022-11-29T19:26:39.887Z,34.50
2022-11-29T19:31:42.772Z,43.22
2022-11-29T19:36:45.477Z,36.50
2022-11-29T19:41:48.159Z,42.17
2022-11-29T19:46:50.255Z,39.05
2022-11-29T19:51:52.433Z,37.22
2022-11-29T19:56:55.869Z,32.60
2022-11-29T20:01:58.058Z,39.75
2022-11-29T20:07:02.752Z,36.65
2022-11-29T20:12:04.665Z,38.05
2022-11-29T20:17:06.752Z,37.30
2022-11-29T20:22:08.501Z,44.13
2022-11-29T20:27:10.436Z,44.05
2022-11-29T20:32:12.337Z,44.53
2022-11-29T20:37:39.179Z,40.42
2022-11-29T20:42:49.747Z,40.85
2022-11-29T20:48:13.183Z,37.30
2022-11-29T20:53:34.419Z,42.70
2022-11-29T20:58:36.619Z,41.67
2022-11-29T21:03:38.447Z,42.60
2022-11-29T21:08:40.276Z,42.80
2022-11-29T21:13:42.386Z,45.72
2022-11-29T21:18:44.469Z,39.92
2022-11-29T21:24:06.764Z,39.22
2022-11-29T21:29:20.320Z,38.03
2022-11-29T21:34:22.558Z,40.28
2022-11-29T21:39:34.908Z,37.92
2022-11-29T21:44:36.682Z,44.35
2022-11-29T21:49:39.354Z,44.15
2022-11-29T21:54:41.316Z,36.97
2022-11-29T21:59:43.255Z,36.72
2022-11-29T22:04:45.839Z,38.45
2022-11-29T22:09:48.927Z,42.13
2022-11-29T22:14:50.707Z,38.40
2022-11-29T22:19:52.501Z,44.03
2022-11-29T22:24:54.240Z,38.85
2022-11-29T22:29:56.085Z,37.40
2022-11-29T22:34:57.908Z,46.10
2022-11-29T22:39:59.600Z,46.50
2022-11-29T22:45:03.887Z,44.42
2022-11-29T22:50:06.305Z,43.45
2022-11-29T22:55:08.706Z,44.58
2022-11-29T23:00:11.456Z,47.40
2022-11-29T23:05:13.303Z,44.58
2022-11-29T23:10:15.322Z,38.65
2022-11-29T23:15:17.072Z,45.08
2022-11-29T23:20:18.830Z,37.72
2022-11-29T23:25:20.653Z,37.33
2022-11-29T23:30:22.390Z,37.67
2022-11-29T23:35:24.163Z,42.35
2022-11-29T23:40:25.935Z,36.97
2022-11-29T23:45:28.022Z,46.90
2022-11-29T23:50:29.989Z,53.70
2022-11-29T23:55:31.850Z,38.17
